sensor_id;sensor_type;location;lat;lon;timestamp;pressure;altitude;pressure_sealevel;temperature;humidity
67517;BME280;54359;59.124;37.910;2023-02-19T00:01:39;98594.16;;;-4.82;74.84
67517;BME280;54359;59.124;37.910;2023-02-19T00:04:17;98586.34;;;-4.88;74.32
67517;BME280;54359;59.124;37.910;2023-02-19T00:06:44;98593.97;;;-4.85;74.24
67517;BME280;54359;59.124;37.910;2023-02-19T00:09:12;98593.22;;;-4.84;74.46
67517;BME280;54359;59.124;37.910;2023-02-19T00:11:38;98569.97;;;-4.98;75.25
67517;BME280;54359;59.124;37.910;2023-02-19T00:14:06;98582.31;;;-4.85;74.81
67517;BME280;54359;59.124;37.910;2023-02-19T00:16:34;98584.81;;;-4.85;74.63
67517;BME280;54359;59.124;37.910;2023-02-19T00:19:02;98589.91;;;-4.83;74.56
67517;BME280;54359;59.124;37.910;2023-02-19T00:21:30;98578.09;;;-4.86;74.28
67517;BME280;54359;59.124;37.910;2023-02-19T00:23:59;98578.94;;;-4.85;74.90
67517;BME280;54359;59.124;37.910;2023-02-19T00:26:25;98582.94;;;-4.89;75.25
67517;BME280;54359;59.124;37.910;2023-02-19T00:28:54;98579.59;;;-4.89;74.58
67517;BME280;54359;59.124;37.910;2023-02-19T00:31:25;98559.09;;;-4.98;74.41
67517;BME280;54359;59.124;37.910;2023-02-19T00:33:54;98568.63;;;-4.91;74.53
67517;BME280;54359;59.124;37.910;2023-02-19T00:36:22;98575.28;;;-4.92;74.32
67517;BME280;54359;59.124;37.910;2023-02-19T00:38:49;98566.00;;;-4.94;74.51
67517;BME280;54359;59.124;37.910;2023-02-19T00:41:17;98543.47;;;-5.11;75.07
67517;BME280;54359;59.124;37.910;2023-02-19T00:43:56;98560.91;;;-4.96;74.96
67517;BME280;54359;59.124;37.910;2023-02-19T00:46:29;98561.91;;;-4.92;74.45
67517;BME280;54359;59.124;37.910;2023-02-19T00:48:55;98557.59;;;-4.95;74.87
67517;BME280;54359;59.124;37.910;2023-02-19T00:51:24;98553.22;;;-4.99;75.07
67517;BME280;54359;59.124;37.910;2023-02-19T00:53:51;98556.09;;;-4.91;74.99
67517;BME280;54359;59.124;37.910;2023-02-19T00:56:17;98545.88;;;-4.96;75.12
67517;BME280;54359;59.124;37.910;2023-02-19T00:58:43;98535.63;;;-5.00;74.98
67517;BME280;54359;59.124;37.910;2023-02-19T01:01:10;98552.56;;;-4.95;74.56
67517;BME280;54359;59.124;37.910;2023-02-19T01:03:36;98546.16;;;-4.90;74.44
67517;BME280;54359;59.124;37.910;2023-02-19T01:06:03;98548.50;;;-4.93;75.01
67517;BME280;54359;59.124;37.910;2023-02-19T01:08:29;98517.78;;;-5.07;75.27
67517;BME280;54359;59.124;37.910;2023-02-19T01:11:00;98541.88;;;-4.92;74.99
67517;BME280;54359;59.124;37.910;2023-02-19T01:13:27;98540.03;;;-4.95;74.94
67517;BME280;54359;59.124;37.910;2023-02-19T01:16:05;98535.28;;;-4.90;74.67
67517;BME280;54359;59.124;37.910;2023-02-19T01:18:34;98538.00;;;-4.86;74.78
67517;BME280;54359;59.124;37.910;2023-02-19T01:21:20;98532.91;;;-4.87;75.05
67517;BME280;54359;59.124;37.910;2023-02-19T01:23:47;98524.63;;;-4.86;75.05
67517;BME280;54359;59.124;37.910;2023-02-19T01:26:23;98522.25;;;-4.83;74.63
67517;BME280;54359;59.124;37.910;2023-02-19T01:28:50;98534.56;;;-4.70;74.41
67517;BME280;54359;59.124;37.910;2023-02-19T01:31:18;98528.84;;;-4.67;75.01
67517;BME280;54359;59.124;37.910;2023-02-19T01:33:48;98542.59;;;-4.59;74.60
67517;BME280;54359;59.124;37.910;2023-02-19T01:36:19;98523.94;;;-4.64;74.77
67517;BME280;54359;59.124;37.910;2023-02-19T01:38:46;98501.06;;;-4.72;74.55
67517;BME280;54359;59.124;37.910;2023-02-19T01:41:15;98493.25;;;-4.78;74.39
67517;BME280;54359;59.124;37.910;2023-02-19T01:46:33;98520.75;;;-4.61;74.78
67517;BME280;54359;59.124;37.910;2023-02-19T01:49:11;98517.31;;;-4.63;74.13
67517;BME280;54359;59.124;37.910;2023-02-19T01:52:22;98501.91;;;-4.71;74.80
67517;BME280;54359;59.124;37.910;2023-02-19T01:54:48;98507.97;;;-4.66;74.62
67517;BME280;54359;59.124;37.910;2023-02-19T01:57:18;98514.09;;;-4.61;74.78
67517;BME280;54359;59.124;37.910;2023-02-19T01:59:47;98502.31;;;-4.62;74.50
67517;BME280;54359;59.124;37.910;2023-02-19T02:02:14;98506.69;;;-4.58;74.72
67517;BME280;54359;59.124;37.910;2023-02-19T02:04:40;98489.59;;;-4.67;75.00
67517;BME280;54359;59.124;37.910;2023-02-19T02:07:09;98504.25;;;-4.56;74.77
67517;BME280;54359;59.124;37.910;2023-02-19T02:09:55;98495.72;;;-4.60;74.98
67517;BME280;54359;59.124;37.910;2023-02-19T02:12:39;98497.66;;;-4.54;74.32
67517;BME280;54359;59.124;37.910;2023-02-19T02:15:06;98486.72;;;-4.56;74.50
67517;BME280;54359;59.124;37.910;2023-02-19T02:18:09;98506.19;;;-4.51;74.37
67517;BME280;54359;59.124;37.910;2023-02-19T02:21:49;98491.88;;;-4.53;74.28
67517;BME280;54359;59.124;37.910;2023-02-19T02:29:35;98479.84;;;-4.60;74.30
67517;BME280;54359;59.124;37.910;2023-02-19T02:32:11;98485.50;;;-4.65;74.27
67517;BME280;54359;59.124;37.910;2023-02-19T02:34:53;98481.97;;;-4.68;74.45
67517;BME280;54359;59.124;37.910;2023-02-19T02:37:27;98489.75;;;-4.63;74.60
67517;BME280;54359;59.124;37.910;2023-02-19T02:39:57;98491.59;;;-4.59;74.70
67517;BME280;54359;59.124;37.910;2023-02-19T02:42:24;98496.53;;;-4.61;74.57
67517;BME280;54359;59.124;37.910;2023-02-19T02:45:22;98491.53;;;-4.61;75.02
67517;BME280;54359;59.124;37.910;2023-02-19T02:48:25;98497.25;;;-4.63;74.64
67517;BME280;54359;59.124;37.910;2023-02-19T02:51:08;98492.94;;;-4.66;74.38
67517;BME280;54359;59.124;37.910;2023-02-19T02:53:52;98490.31;;;-4.69;74.60
67517;BME280;54359;59.124;37.910;2023-02-19T02:56:40;98486.72;;;-4.74;74.78
67517;BME280;54359;59.124;37.910;2023-02-19T02:59:10;98477.94;;;-4.84;74.80
67517;BME280;54359;59.124;37.910;2023-02-19T03:01:44;98497.53;;;-4.75;74.33
67517;BME280;54359;59.124;37.910;2023-02-19T03:10:36;98491.22;;;-4.85;74.66
67517;BME280;54359;59.124;37.910;2023-02-19T03:13:09;98497.91;;;-4.86;74.54
67517;BME280;54359;59.124;37.910;2023-02-19T03:16:05;98487.81;;;-4.87;75.21
67517;BME280;54359;59.124;37.910;2023-02-19T03:18:53;98467.84;;;-4.86;74.41
67517;BME280;54359;59.124;37.910;2023-02-19T03:24:22;98455.66;;;-4.96;74.97
67517;BME280;54359;59.124;37.910;2023-02-19T03:27:13;98467.84;;;-4.86;74.94
67517;BME280;54359;59.124;37.910;2023-02-19T03:29:46;98469.81;;;-4.78;74.97
67517;BME280;54359;59.124;37.910;2023-02-19T03:32:29;98460.22;;;-4.87;75.01
67517;BME280;54359;59.124;37.910;2023-02-19T03:35:21;98482.31;;;-4.80;75.07
67517;BME280;54359;59.124;37.910;2023-02-19T03:38:12;98475.56;;;-4.81;74.35
67517;BME280;54359;59.124;37.910;2023-02-19T03:43:24;98435.53;;;-5.15;74.50
67517;BME280;54359;59.124;37.910;2023-02-19T03:48:53;98490.38;;;-4.86;74.15
67517;BME280;54359;59.124;37.910;2023-02-19T03:51:47;98474.25;;;-4.91;74.89
67517;BME280;54359;59.124;37.910;2023-02-19T03:59:42;98461.16;;;-5.21;74.81
67517;BME280;54359;59.124;37.910;2023-02-19T04:05:07;98434.59;;;-5.35;75.00
67517;BME280;54359;59.124;37.910;2023-02-19T04:07:41;98449.13;;;-5.28;74.35
67517;BME280;54359;59.124;37.910;2023-02-19T04:10:13;98464.09;;;-5.12;74.87
67517;BME280;54359;59.124;37.910;2023-02-19T04:12:52;98463.16;;;-5.14;75.04
67517;BME280;54359;59.124;37.910;2023-02-19T04:15:26;98455.50;;;-5.17;74.48
67517;BME280;54359;59.124;37.910;2023-02-19T04:18:09;98414.13;;;-5.44;74.69
67517;BME280;54359;59.124;37.910;2023-02-19T04:20:43;98420.06;;;-5.42;74.63
67517;BME280;54359;59.124;37.910;2023-02-19T04:23:15;98452.69;;;-5.41;73.90
67517;BME280;54359;59.124;37.910;2023-02-19T04:25:44;98437.84;;;-5.54;74.37
67517;BME280;54359;59.124;37.910;2023-02-19T04:28:13;98457.59;;;-5.42;74.55
67517;BME280;54359;59.124;37.910;2023-02-19T04:30:45;98460.19;;;-5.41;74.12
67517;BME280;54359;59.124;37.910;2023-02-19T04:33:11;98439.50;;;-5.55;74.82
67517;BME280;54359;59.124;37.910;2023-02-19T04:35:42;98420.00;;;-5.78;74.82
67517;BME280;54359;59.124;37.910;2023-02-19T04:38:38;98457.88;;;-5.54;74.99
67517;BME280;54359;59.124;37.910;2023-02-19T04:41:04;98459.31;;;-5.59;74.09
67517;BME280;54359;59.124;37.910;2023-02-19T04:43:36;98468.69;;;-5.55;74.53
67517;BME280;54359;59.124;37.910;2023-02-19T04:46:02;98461.63;;;-5.62;74.05
67517;BME280;54359;59.124;37.910;2023-02-19T04:48:31;98462.56;;;-5.60;74.94
67517;BME280;54359;59.124;37.910;2023-02-19T04:50:58;98447.19;;;-5.68;74.29
67517;BME280;54359;59.124;37.910;2023-02-19T04:53:36;98442.81;;;-5.72;74.59
67517;BME280;54359;59.124;37.910;2023-02-19T04:56:22;98437.56;;;-5.77;74.88
67517;BME280;54359;59.124;37.910;2023-02-19T04:58:50;98456.63;;;-5.62;75.14
67517;BME280;54359;59.124;37.910;2023-02-19T05:01:16;98458.06;;;-5.68;75.03
67517;BME280;54359;59.124;37.910;2023-02-19T05:03:43;98456.50;;;-5.66;73.97
67517;BME280;54359;59.124;37.910;2023-02-19T05:06:13;98440.16;;;-5.75;74.23
67517;BME280;54359;59.124;37.910;2023-02-19T05:08:47;98446.09;;;-5.73;74.98
67517;BME280;54359;59.124;37.910;2023-02-19T05:11:43;98449.63;;;-5.70;74.40
67517;BME280;54359;59.124;37.910;2023-02-19T05:14:23;98426.56;;;-5.80;74.08
67517;BME280;54359;59.124;37.910;2023-02-19T05:16:49;98410.06;;;-5.93;75.11
67517;BME280;54359;59.124;37.910;2023-02-19T05:19:15;98450.97;;;-5.76;74.91
67517;BME280;54359;59.124;37.910;2023-02-19T05:21:41;98424.84;;;-5.81;75.23
67517;BME280;54359;59.124;37.910;2023-02-19T05:24:07;98417.25;;;-5.83;74.11
67517;BME280;54359;59.124;37.910;2023-02-19T05:26:33;98427.66;;;-5.75;74.81
67517;BME280;54359;59.124;37.910;2023-02-19T05:29:00;98441.56;;;-5.64;74.90
67517;BME280;54359;59.124;37.910;2023-02-19T05:31:26;98391.78;;;-5.92;74.33
67517;BME280;54359;59.124;37.910;2023-02-19T05:33:54;98425.44;;;-5.69;74.82
67517;BME280;54359;59.124;37.910;2023-02-19T05:36:21;98367.22;;;-6.01;74.39
67517;BME280;54359;59.124;37.910;2023-02-19T05:38:52;98414.88;;;-5.63;74.40
67517;BME280;54359;59.124;37.910;2023-02-19T05:41:27;98436.28;;;-5.52;74.58
67517;BME280;54359;59.124;37.910;2023-02-19T05:44:00;98392.22;;;-5.83;75.24
67517;BME280;54359;59.124;37.910;2023-02-19T05:46:37;98383.97;;;-5.82;74.96
67517;BME280;54359;59.124;37.910;2023-02-19T05:49:39;98385.81;;;-5.78;74.80
67517;BME280;54359;59.124;37.910;2023-02-19T05:52:11;98379.34;;;-5.74;74.88
67517;BME280;54359;59.124;37.910;2023-02-19T05:54:37;98373.53;;;-5.73;75.11
67517;BME280;54359;59.124;37.910;2023-02-19T05:57:03;98364.75;;;-5.65;74.88
67517;BME280;54359;59.124;37.910;2023-02-19T05:59:29;98374.03;;;-5.62;75.01
67517;BME280;54359;59.124;37.910;2023-02-19T06:02:00;98376.91;;;-5.55;74.67
67517;BME280;54359;59.124;37.910;2023-02-19T06:04:32;98377.06;;;-5.52;74.25
67517;BME280;54359;59.124;37.910;2023-02-19T06:07:07;98364.19;;;-5.59;74.28
67517;BME280;54359;59.124;37.910;2023-02-19T06:09:33;98361.75;;;-5.58;74.78
67517;BME280;54359;59.124;37.910;2023-02-19T06:11:58;98380.63;;;-5.47;74.92
67517;BME280;54359;59.124;37.910;2023-02-19T06:14:24;98387.66;;;-5.39;74.89
67517;BME280;54359;59.124;37.910;2023-02-19T06:16:50;98400.47;;;-5.33;74.99
67517;BME280;54359;59.124;37.910;2023-02-19T06:19:19;98360.97;;;-5.57;74.79
67517;BME280;54359;59.124;37.910;2023-02-19T06:21:45;98377.94;;;-5.51;74.55
67517;BME280;54359;59.124;37.910;2023-02-19T06:24:11;98366.91;;;-5.55;75.28
67517;BME280;54359;59.124;37.910;2023-02-19T06:26:37;98348.97;;;-5.64;74.04
67517;BME280;54359;59.124;37.910;2023-02-19T06:29:03;98367.69;;;-5.56;74.87
67517;BME280;54359;59.124;37.910;2023-02-19T06:31:32;98394.38;;;-5.38;74.74
67517;BME280;54359;59.124;37.910;2023-02-19T06:33:57;98403.41;;;-5.24;74.81
67517;BME280;54359;59.124;37.910;2023-02-19T06:36:25;98343.97;;;-5.64;74.63
67517;BME280;54359;59.124;37.910;2023-02-19T06:38:51;98362.75;;;-5.36;74.72
67517;BME280;54359;59.124;37.910;2023-02-19T06:41:18;98355.81;;;-5.42;74.66
67517;BME280;54359;59.124;37.910;2023-02-19T06:43:44;98386.06;;;-5.19;74.49
67517;BME280;54359;59.124;37.910;2023-02-19T06:46:12;98370.13;;;-5.21;74.96
67517;BME280;54359;59.124;37.910;2023-02-19T06:48:41;98352.66;;;-5.20;75.13
67517;BME280;54359;59.124;37.910;2023-02-19T06:51:17;98368.41;;;-5.04;74.84
67517;BME280;54359;59.124;37.910;2023-02-19T06:53:45;98366.19;;;-4.98;74.88
67517;BME280;54359;59.124;37.910;2023-02-19T06:56:30;98379.47;;;-4.81;74.73
67517;BME280;54359;59.124;37.910;2023-02-19T06:59:09;98343.56;;;-5.00;74.54
67517;BME280;54359;59.124;37.910;2023-02-19T07:01:57;98367.00;;;-4.80;74.48
67517;BME280;54359;59.124;37.910;2023-02-19T07:04:58;98301.19;;;-5.13;74.52
67517;BME280;54359;59.124;37.910;2023-02-19T07:07:47;98368.53;;;-4.64;74.90
67517;BME280;54359;59.124;37.910;2023-02-19T07:10:19;98327.50;;;-4.86;74.79
67517;BME280;54359;59.124;37.910;2023-02-19T07:12:48;98371.38;;;-4.56;74.38
67517;BME280;54359;59.124;37.910;2023-02-19T07:15:18;98352.38;;;-4.71;74.92
67517;BME280;54359;59.124;37.910;2023-02-19T07:17:44;98333.50;;;-4.82;74.61
67517;BME280;54359;59.124;37.910;2023-02-19T07:20:15;98326.91;;;-4.80;74.77
67517;BME280;54359;59.124;37.910;2023-02-19T07:22:47;98362.28;;;-4.54;74.87
67517;BME280;54359;59.124;37.910;2023-02-19T07:25:21;98320.63;;;-4.70;74.35
67517;BME280;54359;59.124;37.910;2023-02-19T07:27:56;98361.41;;;-4.35;74.93
67517;BME280;54359;59.124;37.910;2023-02-19T07:30:33;98349.50;;;-4.41;74.42
67517;BME280;54359;59.124;37.910;2023-02-19T07:32:59;98301.19;;;-4.76;74.52
67517;BME280;54359;59.124;37.910;2023-02-19T07:35:31;98317.69;;;-4.61;74.44
67517;BME280;54359;59.124;37.910;2023-02-19T07:38:21;98341.72;;;-4.47;74.24
67517;BME280;54359;59.124;37.910;2023-02-19T07:40:53;98331.06;;;-4.41;74.53
67517;BME280;54359;59.124;37.910;2023-02-19T07:43:21;98315.09;;;-4.43;74.60
67517;BME280;54359;59.124;37.910;2023-02-19T07:45:54;98343.72;;;-4.19;74.48
67517;BME280;54359;59.124;37.910;2023-02-19T07:48:23;98311.50;;;-4.29;74.87
67517;BME280;54359;59.124;37.910;2023-02-19T07:51:01;98283.66;;;-4.35;74.92
67517;BME280;54359;59.124;37.910;2023-02-19T07:53:32;98313.94;;;-4.11;74.60
67517;BME280;54359;59.124;37.910;2023-02-19T07:56:04;98295.28;;;-4.18;74.67
67517;BME280;54359;59.124;37.910;2023-02-19T07:58:35;98330.81;;;-3.88;74.20
67517;BME280;54359;59.124;37.910;2023-02-19T08:01:22;98343.84;;;-3.75;74.34
67517;BME280;54359;59.124;37.910;2023-02-19T08:04:07;98291.19;;;-3.95;74.09
67517;BME280;54359;59.124;37.910;2023-02-19T08:06:43;98269.19;;;-4.00;74.66
67517;BME280;54359;59.124;37.910;2023-02-19T08:09:09;98302.94;;;-3.73;74.59
67517;BME280;54359;59.124;37.910;2023-02-19T08:11:35;98299.41;;;-3.55;74.43
67517;BME280;54359;59.124;37.910;2023-02-19T08:14:23;98314.19;;;-3.42;74.94
67517;BME280;54359;59.124;37.910;2023-02-19T08:16:51;98329.09;;;-3.24;74.50
67517;BME280;54359;59.124;37.910;2023-02-19T08:19:17;98321.84;;;-3.16;74.25
67517;BME280;54359;59.124;37.910;2023-02-19T08:21:45;98301.63;;;-3.19;74.20
67517;BME280;54359;59.124;37.910;2023-02-19T08:24:12;98289.31;;;-3.13;73.88
67517;BME280;54359;59.124;37.910;2023-02-19T08:26:40;98253.53;;;-3.29;74.85
67517;BME280;54359;59.124;37.910;2023-02-19T08:29:06;98276.97;;;-3.07;74.10
67517;BME280;54359;59.124;37.910;2023-02-19T08:31:33;98282.16;;;-3.03;74.35
67517;BME280;54359;59.124;37.910;2023-02-19T08:34:06;98267.75;;;-3.07;74.34
67517;BME280;54359;59.124;37.910;2023-02-19T08:36:35;98226.50;;;-3.36;74.14
67517;BME280;54359;59.124;37.910;2023-02-19T08:39:03;98270.63;;;-3.20;73.95
67517;BME280;54359;59.124;37.910;2023-02-19T08:41:35;98238.47;;;-3.29;74.25
67517;BME280;54359;59.124;37.910;2023-02-19T08:44:02;98297.13;;;-2.81;74.36
67517;BME280;54359;59.124;37.910;2023-02-19T08:46:34;98282.28;;;-2.75;73.79
67517;BME280;54359;59.124;37.910;2023-02-19T08:48:59;98284.84;;;-2.74;74.42
67517;BME280;54359;59.124;37.910;2023-02-19T08:51:25;98265.84;;;-2.90;74.63
67517;BME280;54359;59.124;37.910;2023-02-19T08:53:51;98263.94;;;-2.97;74.09
67517;BME280;54359;59.124;37.910;2023-02-19T08:56:17;98283.66;;;-2.84;74.30
67517;BME280;54359;59.124;37.910;2023-02-19T08:58:45;98281.13;;;-2.85;74.65
67517;BME280;54359;59.124;37.910;2023-02-19T09:01:14;98292.41;;;-2.74;74.06
67517;BME280;54359;59.124;37.910;2023-02-19T09:03:41;98290.63;;;-2.76;73.96
67517;BME280;54359;59.124;37.910;2023-02-19T09:06:14;98305.31;;;-2.65;73.93
67517;BME280;54359;59.124;37.910;2023-02-19T09:08:43;98292.72;;;-2.65;74.46
67517;BME280;54359;59.124;37.910;2023-02-19T09:11:10;98271.38;;;-2.76;73.82
67517;BME280;54359;59.124;37.910;2023-02-19T09:13:36;98247.69;;;-2.83;73.96
67517;BME280;54359;59.124;37.910;2023-02-19T09:16:04;98253.00;;;-2.73;73.78
67517;BME280;54359;59.124;37.910;2023-02-19T09:18:30;98240.00;;;-2.86;74.05
67517;BME280;54359;59.124;37.910;2023-02-19T09:21:02;98260.41;;;-2.78;73.75
67517;BME280;54359;59.124;37.910;2023-02-19T09:23:31;98257.94;;;-2.76;73.92
67517;BME280;54359;59.124;37.910;2023-02-19T09:25:58;98260.06;;;-2.63;74.10
67517;BME280;54359;59.124;37.910;2023-02-19T09:28:25;98250.81;;;-2.64;74.21
67517;BME280;54359;59.124;37.910;2023-02-19T09:30:54;98246.00;;;-2.58;74.18
67517;BME280;54359;59.124;37.910;2023-02-19T09:33:20;98282.28;;;-2.27;73.97
67517;BME280;54359;59.124;37.910;2023-02-19T09:35:47;98289.38;;;-2.15;74.38
67517;BME280;54359;59.124;37.910;2023-02-19T09:38:13;98290.38;;;-2.10;73.64
67517;BME280;54359;59.124;37.910;2023-02-19T09:40:38;98286.38;;;-2.05;73.98
67517;BME280;54359;59.124;37.910;2023-02-19T09:43:14;98279.91;;;-1.97;74.12
67517;BME280;54359;59.124;37.910;2023-02-19T09:45:41;98275.03;;;-1.92;74.22
67517;BME280;54359;59.124;37.910;2023-02-19T09:48:08;98251.50;;;-1.93;73.67
67517;BME280;54359;59.124;37.910;2023-02-19T09:50:39;98273.84;;;-1.76;73.58
67517;BME280;54359;59.124;37.910;2023-02-19T09:53:39;98276.50;;;-1.72;73.31
67517;BME280;54359;59.124;37.910;2023-02-19T09:56:06;98258.56;;;-1.83;73.81
67517;BME280;54359;59.124;37.910;2023-02-19T09:58:50;98265.47;;;-1.75;73.87
67517;BME280;54359;59.124;37.910;2023-02-19T10:01:18;98264.72;;;-1.73;73.91
67517;BME280;54359;59.124;37.910;2023-02-19T10:03:46;98230.53;;;-1.92;73.61
67517;BME280;54359;59.124;37.910;2023-02-19T10:06:19;98243.47;;;-1.81;73.53
67517;BME280;54359;59.124;37.910;2023-02-19T10:08:48;98265.66;;;-1.69;73.06
67517;BME280;54359;59.124;37.910;2023-02-19T10:11:15;98264.72;;;-1.73;73.70
67517;BME280;54359;59.124;37.910;2023-02-19T10:13:44;98225.50;;;-1.92;73.37
67517;BME280;54359;59.124;37.910;2023-02-19T10:16:22;98262.81;;;-1.80;73.80
67517;BME280;54359;59.124;37.910;2023-02-19T10:18:49;98256.09;;;-1.79;73.41
67517;BME280;54359;59.124;37.910;2023-02-19T10:21:18;98259.47;;;-1.79;73.81
67517;BME280;54359;59.124;37.910;2023-02-19T10:23:46;98215.06;;;-2.04;73.39
67517;BME280;54359;59.124;37.910;2023-02-19T10:26:13;98227.13;;;-1.94;73.30
67517;BME280;54359;59.124;37.910;2023-02-19T10:28:39;98192.53;;;-1.99;73.16
67517;BME280;54359;59.124;37.910;2023-02-19T10:31:14;98241.19;;;-1.73;73.43
67517;BME280;54359;59.124;37.910;2023-02-19T10:36:38;98239.75;;;-1.65;73.07
67517;BME280;54359;59.124;37.910;2023-02-19T10:42:22;98211.34;;;-1.88;73.50
67517;BME280;54359;59.124;37.910;2023-02-19T10:44:52;98210.50;;;-1.89;73.57
67517;BME280;54359;59.124;37.910;2023-02-19T10:47:24;98204.66;;;-1.88;73.09
67517;BME280;54359;59.124;37.910;2023-02-19T10:49:52;98191.09;;;-1.91;73.12
67517;BME280;54359;59.124;37.910;2023-02-19T10:52:23;98218.56;;;-1.72;72.62
67517;BME280;54359;59.124;37.910;2023-02-19T10:57:45;98211.94;;;-1.70;72.99
67517;BME280;54359;59.124;37.910;2023-02-19T11:02:43;98184.66;;;-1.83;72.81
67517;BME280;54359;59.124;37.910;2023-02-19T11:07:54;98197.78;;;-1.65;73.38
67517;BME280;54359;59.124;37.910;2023-02-19T11:10:23;98217.88;;;-1.39;72.97
67517;BME280;54359;59.124;37.910;2023-02-19T11:12:53;98199.63;;;-1.30;72.87
67517;BME280;54359;59.124;37.910;2023-02-19T11:15:29;98195.94;;;-1.11;73.04
67517;BME280;54359;59.124;37.910;2023-02-19T11:18:32;98200.66;;;-0.93;72.85
67517;BME280;54359;59.124;37.910;2023-02-19T11:21:03;98189.59;;;-0.98;72.54
67517;BME280;54359;59.124;37.910;2023-02-19T11:23:34;98197.34;;;-0.91;72.52
67517;BME280;54359;59.124;37.910;2023-02-19T11:26:05;98186.91;;;-1.05;72.82
67517;BME280;54359;59.124;37.910;2023-02-19T11:28:32;98194.50;;;-0.38;73.85
67517;BME280;54359;59.124;37.910;2023-02-19T11:36:35;98181.41;;;2.46;72.48
67517;BME280;54359;59.124;37.910;2023-02-19T11:39:26;98188.53;;;2.76;72.01
67517;BME280;54359;59.124;37.910;2023-02-19T11:53:30;98157.31;;;6.53;71.63
67517;BME280;54359;59.124;37.910;2023-02-19T11:56:23;98170.88;;;6.71;70.37
67517;BME280;54359;59.124;37.910;2023-02-19T11:59:11;98147.16;;;6.36;70.95
67517;BME280;54359;59.124;37.910;2023-02-19T12:13:56;98173.63;;;7.90;70.78
67517;BME280;54359;59.124;37.910;2023-02-19T12:21:49;98124.63;;;8.30;70.47
67517;BME280;54359;59.124;37.910;2023-02-19T12:30:36;98160.34;;;8.43;69.93
67517;BME280;54359;59.124;37.910;2023-02-19T12:39:19;98139.25;;;8.18;70.58
67517;BME280;54359;59.124;37.910;2023-02-19T12:45:05;98147.16;;;7.92;70.05
67517;BME280;54359;59.124;37.910;2023-02-19T12:47:39;98147.72;;;7.11;69.78
67517;BME280;54359;59.124;37.910;2023-02-19T12:52:40;98153.84;;;6.73;70.35
67517;BME280;54359;59.124;37.910;2023-02-19T12:55:43;98162.47;;;5.78;69.97
67517;BME280;54359;59.124;37.910;2023-02-19T12:58:17;98164.06;;;5.03;70.46
67517;BME280;54359;59.124;37.910;2023-02-19T13:00:52;98150.31;;;4.58;70.18
67517;BME280;54359;59.124;37.910;2023-02-19T13:03:38;98166.69;;;3.70;70.00
67517;BME280;54359;59.124;37.910;2023-02-19T13:06:31;98158.59;;;2.48;70.36
67517;BME280;54359;59.124;37.910;2023-02-19T13:09:42;98175.31;;;1.77;70.66
67517;BME280;54359;59.124;37.910;2023-02-19T13:11:52;98178.69;;;0.83;71.04
67517;BME280;54359;59.124;37.910;2023-02-19T13:16:59;98174.84;;;-0.51;70.74
67517;BME280;54359;59.124;37.910;2023-02-19T13:19:30;98168.38;;;-1.05;70.86
67517;BME280;54359;59.124;37.910;2023-02-19T13:22:21;98175.81;;;-1.40;70.86
67517;BME280;54359;59.124;37.910;2023-02-19T13:25:12;98190.22;;;-1.66;70.57
67517;BME280;54359;59.124;37.910;2023-02-19T13:28:20;98195.16;;;-1.96;71.13
67517;BME280;54359;59.124;37.910;2023-02-19T13:36:40;98182.22;;;-2.60;70.38
67517;BME280;54359;59.124;37.910;2023-02-19T13:39:07;98199.41;;;-2.72;70.38
67517;BME280;54359;59.124;37.910;2023-02-19T13:41:54;98201.09;;;-2.97;69.62
67517;BME280;54359;59.124;37.910;2023-02-19T13:44:31;98173.47;;;-3.44;69.68
67517;BME280;54359;59.124;37.910;2023-02-19T13:46:58;98183.81;;;-3.58;70.49
67517;BME280;54359;59.124;37.910;2023-02-19T13:58:35;98218.41;;;-3.95;70.15
67517;BME280;54359;59.124;37.910;2023-02-19T14:03:39;98220.88;;;-4.17;70.20
67517;BME280;54359;59.124;37.910;2023-02-19T14:06:10;98217.78;;;-4.31;70.34
67517;BME280;54359;59.124;37.910;2023-02-19T14:08:57;98222.56;;;-4.37;69.93
67517;BME280;54359;59.124;37.910;2023-02-19T14:12:00;98222.97;;;-4.48;69.93
67517;BME280;54359;59.124;37.910;2023-02-19T14:14:56;98198.38;;;-4.77;69.59
67517;BME280;54359;59.124;37.910;2023-02-19T14:17:50;98199.28;;;-4.95;70.37
67517;BME280;54359;59.124;37.910;2023-02-19T14:20:43;98231.53;;;-4.83;69.78
67517;BME280;54359;59.124;37.910;2023-02-19T14:23:22;98208.75;;;-5.09;69.48
67517;BME280;54359;59.124;37.910;2023-02-19T14:25:56;98224.75;;;-5.05;70.13
67517;BME280;54359;59.124;37.910;2023-02-19T14:28:25;98231.88;;;-5.14;69.57
67517;BME280;54359;59.124;37.910;2023-02-19T14:33:52;98231.19;;;-5.30;70.10
67517;BME280;54359;59.124;37.910;2023-02-19T14:39:21;98222.94;;;-5.47;69.51
67517;BME280;54359;59.124;37.910;2023-02-19T14:41:57;98221.72;;;-5.55;70.19
67517;BME280;54359;59.124;37.910;2023-02-19T14:44:36;98199.00;;;-5.77;69.98
67517;BME280;54359;59.124;37.910;2023-02-19T14:47:14;98243.19;;;-5.60;70.70
67517;BME280;54359;59.124;37.910;2023-02-19T14:52:26;98209.78;;;-5.98;70.19
67517;BME280;54359;59.124;37.910;2023-02-19T14:55:53;98206.06;;;-6.06;69.86
67517;BME280;54359;59.124;37.910;2023-02-19T14:58:21;98250.34;;;-5.86;70.29
67517;BME280;54359;59.124;37.910;2023-02-19T15:00:53;98247.56;;;-5.92;69.75
67517;BME280;54359;59.124;37.910;2023-02-19T15:03:28;98244.97;;;-5.95;69.83
67517;BME280;54359;59.124;37.910;2023-02-19T15:06:13;98224.28;;;-6.09;70.28
67517;BME280;54359;59.124;37.910;2023-02-19T15:09:01;98211.22;;;-6.21;70.38
67517;BME280;54359;59.124;37.910;2023-02-19T15:11:34;98211.94;;;-6.23;70.28
67517;BME280;54359;59.124;37.910;2023-02-19T15:14:06;98249.59;;;-6.02;69.90
67517;BME280;54359;59.124;37.910;2023-02-19T15:16:36;98243.50;;;-6.08;70.25
67517;BME280;54359;59.124;37.910;2023-02-19T15:19:08;98242.72;;;-6.07;70.66
67517;BME280;54359;59.124;37.910;2023-02-19T15:21:38;98250.06;;;-6.10;70.36
67517;BME280;54359;59.124;37.910;2023-02-19T15:24:10;98214.06;;;-6.31;69.53
67517;BME280;54359;59.124;37.910;2023-02-19T15:26:43;98245.66;;;-6.15;70.95
67517;BME280;54359;59.124;37.910;2023-02-19T15:29:18;98218.75;;;-6.37;70.05
67517;BME280;54359;59.124;37.910;2023-02-19T15:31:56;98239.63;;;-6.19;70.98